createdAt,value
2017-12-02T00:02:10.181Z,69.25
2017-12-02T00:04:36.324Z,71.87
2017-12-02T00:07:02.462Z,64.45
2017-12-02T00:09:28.623Z,78.43
2017-12-02T00:11:58.341Z,75.37
2017-12-02T00:14:25.204Z,74.45
2017-12-02T00:16:52.057Z,79.30
2017-12-02T00:19:18.191Z,71.20
2017-12-02T00:21:44.327Z,88.25
2017-12-02T00:24:10.613Z,90.00
2017-12-02T00:26:36.714Z,88.97
2017-12-02T00:29:03.625Z,70.43
2017-12-02T00:31:30.221Z,75.57
2017-12-02T00:33:57.091Z,64.30
2017-12-02T00:36:24.308Z,69.72
2017-12-02T00:38:50.481Z,74.32
2017-12-02T00:41:17.368Z,70.00
2017-12-02T00:43:43.500Z,84.18
2017-12-02T00:46:12.682Z,67.78
2017-12-02T00:48:39.527Z,79.12
2017-12-02T00:51:05.624Z,72.70
2017-12-02T00:53:31.739Z,69.95
2017-12-02T00:55:57.932Z,65.53
2017-12-02T00:58:24.197Z,72.57
2017-12-02T01:00:51.053Z,69.70
2017-12-02T01:03:17.940Z,67.22
2017-12-02T01:05:44.152Z,77.30
2017-12-02T01:08:13.109Z,83.05
2017-12-02T01:10:39.276Z,88.05
2017-12-02T01:13:05.369Z,73.10
2017-12-02T01:15:31.477Z,78.43
2017-12-02T01:17:58.373Z,85.55
2017-12-02T01:20:24.558Z,73.78
2017-12-02T01:22:52.764Z,80.53
2017-12-02T01:25:18.884Z,83.40
2017-12-02T01:27:44.988Z,88.65
2017-12-02T01:30:11.116Z,76.53
2017-12-02T01:32:37.280Z,63.28
2017-12-02T01:35:03.401Z,65.97
2017-12-02T01:37:29.507Z,67.07
2017-12-02T01:39:56.415Z,78.95
2017-12-02T01:42:22.572Z,71.32
2017-12-02T01:44:48.728Z,66.68
2017-12-02T01:47:14.832Z,62.55
2017-12-02T01:49:40.966Z,70.87
2017-12-02T01:52:07.068Z,62.05
2017-12-02T01:54:33.934Z,59.55
2017-12-02T01:57:00.049Z,70.30
2017-12-02T01:59:26.159Z,64.90
2017-12-02T02:01:52.259Z,65.10
2017-12-02T02:04:19.085Z,72.43
2017-12-02T02:06:45.226Z,76.55
2017-12-02T02:09:11.380Z,74.45
2017-12-02T02:11:38.225Z,71.62
2017-12-02T02:14:05.070Z,67.70
2017-12-02T02:16:31.328Z,67.10
2017-12-02T02:18:58.208Z,66.90
2017-12-02T02:21:25.084Z,67.97
2017-12-02T02:23:51.180Z,73.85
2017-12-02T02:26:17.288Z,81.47
2017-12-02T02:28:43.409Z,76.97
2017-12-02T02:31:09.554Z,65.78
2017-12-02T02:33:35.749Z,72.57
2017-12-02T02:36:02.606Z,68.57
2017-12-02T02:38:29.440Z,73.15
2017-12-02T02:40:56.309Z,71.72
2017-12-02T02:43:23.289Z,85.72
2017-12-02T02:45:49.390Z,89.25
2017-12-02T02:48:15.492Z,88.37
2017-12-02T02:50:41.653Z,97.90
2017-12-02T02:53:07.748Z,93.03
2017-12-02T02:55:33.849Z,85.53
2017-12-02T02:57:59.973Z,79.43
2017-12-02T03:00:26.104Z,83.20
2017-12-02T03:02:52.197Z,89.70
2017-12-02T03:05:18.292Z,69.50
2017-12-02T03:07:44.568Z,81.93
2017-12-02T03:10:11.429Z,87.80
2017-12-02T03:12:38.318Z,87.07
2017-12-02T03:15:04.457Z,101.22
2017-12-02T03:17:30.766Z,103.45
2017-12-02T03:19:56.929Z,96.53
2017-12-02T03:22:23.153Z,104.30
2017-12-02T03:24:49.276Z,95.40
2017-12-02T03:27:16.130Z,81.03
2017-12-02T03:29:42.240Z,97.65
2017-12-02T03:32:08.371Z,119.20
2017-12-02T03:34:34.751Z,124.80
2017-12-02T03:37:01.673Z,122.97
2017-12-02T03:39:27.811Z,101.38
2017-12-02T03:41:53.925Z,88.68
2017-12-02T03:44:20.083Z,100.20
2017-12-02T03:46:46.258Z,123.45
2017-12-02T03:49:13.123Z,147.05
2017-12-02T03:51:39.252Z,111.03
2017-12-02T03:54:06.136Z,100.00
2017-12-02T03:56:32.258Z,99.70
2017-12-02T03:58:59.484Z,94.47
2017-12-02T04:01:25.625Z,128.70
2017-12-02T04:03:51.768Z,142.82
2017-12-02T04:06:17.916Z,113.88
2017-12-02T04:08:44.469Z,123.72
2017-12-02T04:11:10.608Z,142.95
2017-12-02T04:13:36.760Z,116.25
2017-12-02T04:16:03.634Z,103.72
2017-12-02T04:18:29.761Z,101.55
2017-12-02T04:20:55.946Z,109.87
2017-12-02T04:23:22.074Z,105.50
2017-12-02T04:25:48.234Z,100.30
2017-12-02T04:28:14.392Z,107.78
2017-12-02T04:30:41.273Z,102.10
2017-12-02T04:33:08.169Z,127.72
2017-12-02T04:35:34.276Z,133.95
2017-12-02T04:38:01.129Z,88.00
2017-12-02T04:40:28.003Z,89.62
2017-12-02T04:42:54.116Z,207.15
2017-12-02T04:45:20.978Z,175.45
2017-12-02T04:47:47.108Z,129.65
2017-12-02T04:50:13.952Z,181.90
2017-12-02T04:52:40.120Z,172.98
2017-12-02T04:55:06.992Z,170.68
2017-12-02T04:57:33.196Z,124.68
2017-12-02T05:00:00.057Z,151.20
2017-12-02T05:02:26.898Z,116.40
2017-12-02T05:04:54.169Z,134.80
2017-12-02T05:07:21.008Z,160.48
2017-12-02T05:09:47.100Z,171.18
2017-12-02T05:12:13.224Z,140.02
2017-12-02T05:14:39.329Z,156.43
2017-12-02T05:17:05.655Z,197.43
2017-12-02T05:19:31.722Z,181.15
2017-12-02T05:21:58.570Z,155.55
2017-12-02T05:24:24.697Z,155.63
2017-12-02T05:26:50.828Z,156.10
2017-12-02T05:29:16.933Z,145.73
2017-12-02T05:31:43.080Z,204.25
2017-12-02T05:34:09.220Z,176.52
2017-12-02T05:36:35.328Z,145.85
2017-12-02T05:39:01.432Z,177.05
2017-12-02T05:41:27.585Z,187.70
2017-12-02T05:43:53.761Z,231.70
2017-12-02T05:46:19.874Z,285.30
2017-12-02T05:48:46.001Z,323.13
2017-12-02T05:51:12.880Z,174.32
2017-12-02T05:53:38.992Z,181.73
2017-12-02T05:56:05.851Z,138.62
2017-12-02T05:58:32.843Z,136.68
2017-12-02T06:01:00.024Z,143.98
2017-12-02T06:03:26.159Z,116.68
2017-12-02T06:05:52.284Z,159.80
2017-12-02T06:08:18.383Z,165.48
2017-12-02T06:10:45.300Z,156.95
2017-12-02T06:13:11.392Z,183.90
2017-12-02T06:15:37.530Z,153.73
2017-12-02T06:18:04.402Z,215.68
2017-12-02T06:20:30.519Z,172.87
2017-12-02T06:22:57.399Z,206.00
2017-12-02T06:25:23.673Z,186.80
2017-12-02T06:27:49.788Z,179.87
2017-12-02T06:30:15.900Z,158.55
2017-12-02T06:32:42.001Z,180.15
2017-12-02T06:35:08.138Z,163.68
2017-12-02T06:37:34.353Z,190.82
2017-12-02T06:40:00.455Z,168.25
2017-12-02T06:42:26.554Z,178.10
2017-12-02T06:44:53.471Z,175.43
2017-12-02T06:47:19.681Z,174.20
2017-12-02T06:49:45.809Z,174.57
2017-12-02T06:52:11.935Z,174.25
2017-12-02T06:54:38.096Z,134.93
2017-12-02T06:57:04.196Z,157.02
2017-12-02T06:59:30.348Z,181.02
2017-12-02T07:01:57.306Z,202.73
2017-12-02T07:04:24.524Z,196.82
2017-12-02T07:06:50.670Z,198.73
2017-12-02T07:09:16.799Z,174.38
2017-12-02T07:14:18.594Z,155.85
2017-12-02T07:16:44.735Z,135.23
2017-12-02T07:19:10.937Z,150.82
2017-12-02T07:21:37.443Z,117.85
2017-12-02T07:24:03.561Z,148.68
2017-12-02T07:26:29.740Z,131.87
2017-12-02T07:28:55.896Z,150.68
2017-12-02T07:31:23.231Z,135.95
2017-12-02T07:33:49.401Z,150.43
2017-12-02T07:36:15.553Z,148.85
2017-12-02T07:38:41.692Z,131.12
2017-12-02T07:41:07.913Z,126.75
2017-12-02T07:43:34.074Z,118.57
2017-12-02T07:46:00.262Z,134.87
2017-12-02T07:48:28.525Z,127.60
2017-12-02T07:50:54.661Z,141.48
2017-12-02T07:53:20.790Z,117.50
2017-12-02T07:55:46.965Z,134.93
2017-12-02T07:58:13.097Z,131.18
2017-12-02T08:00:40.049Z,136.85
2017-12-02T08:03:06.160Z,122.18
2017-12-02T08:05:32.268Z,101.75
2017-12-02T08:07:58.372Z,117.15
2017-12-02T08:10:25.317Z,107.68
2017-12-02T08:12:51.474Z,119.15
2017-12-02T08:15:17.576Z,106.80
2017-12-02T08:17:44.421Z,89.30
2017-12-02T08:20:10.539Z,89.70
2017-12-02T08:22:37.820Z,98.12
2017-12-02T08:25:05.442Z,101.95
2017-12-02T08:27:32.284Z,93.90
2017-12-02T08:29:58.448Z,90.93
2017-12-02T08:32:24.602Z,101.03
2017-12-02T08:34:50.777Z,86.22
2017-12-02T08:37:16.900Z,96.60
2017-12-02T08:39:43.032Z,105.47
2017-12-02T08:42:09.161Z,97.97
2017-12-02T08:44:35.257Z,91.35
2017-12-02T08:47:01.381Z,103.65
2017-12-02T08:49:28.542Z,110.00
2017-12-02T08:51:54.653Z,97.25
2017-12-02T08:54:20.780Z,101.18
2017-12-02T08:56:46.928Z,115.60
2017-12-02T08:59:13.053Z,99.90
2017-12-02T09:01:39.899Z,95.15
2017-12-02T09:04:06.041Z,107.12
2017-12-02T09:06:33.061Z,88.80
2017-12-02T09:08:59.222Z,96.35
2017-12-02T09:11:25.326Z,89.05
2017-12-02T09:13:51.430Z,87.75
2017-12-02T09:16:17.577Z,95.38
2017-12-02T09:18:43.678Z,82.32
2017-12-02T09:21:10.649Z,84.55
2017-12-02T09:23:37.547Z,93.95
2017-12-02T09:26:03.699Z,90.85
2017-12-02T09:28:29.823Z,87.15
2017-12-02T09:30:55.962Z,76.62
2017-12-02T09:33:22.092Z,71.82
2017-12-02T09:35:48.201Z,74.28
2017-12-02T09:38:14.317Z,90.43
2017-12-02T09:40:40.469Z,80.93
2017-12-02T09:43:07.313Z,92.18
2017-12-02T09:45:34.167Z,80.68
2017-12-02T09:48:01.025Z,79.57
2017-12-02T09:50:27.139Z,72.90
2017-12-02T09:52:53.351Z,73.25
2017-12-02T09:55:19.461Z,69.93
2017-12-02T09:57:46.355Z,70.35
2017-12-02T10:00:15.239Z,70.50
2017-12-02T10:02:41.425Z,67.70
2017-12-02T10:05:07.668Z,63.45
2017-12-02T10:07:34.015Z,70.03
2017-12-02T10:10:00.977Z,61.55
2017-12-02T10:12:27.852Z,64.32
2017-12-02T10:14:54.030Z,70.70
2017-12-02T10:17:20.974Z,71.32
2017-12-02T10:19:47.822Z,71.12
2017-12-02T10:22:14.028Z,71.97
2017-12-02T10:24:40.190Z,73.15
2017-12-02T10:27:06.320Z,78.35
2017-12-02T10:32:06.217Z,78.35
2017-12-02T10:37:18.897Z,89.70
2017-12-02T10:39:45.030Z,71.55
2017-12-02T10:42:11.290Z,76.32
2017-12-02T10:44:37.437Z,83.22
2017-12-02T10:47:03.788Z,72.07
2017-12-02T10:49:29.887Z,74.97
2017-12-02T10:52:00.410Z,76.47
2017-12-02T10:54:27.389Z,81.30
2017-12-02T10:56:53.520Z,77.47
2017-12-02T10:59:25.926Z,86.43
2017-12-02T11:01:52.794Z,80.00
2017-12-02T11:04:23.438Z,68.07
2017-12-02T11:06:56.389Z,66.00
2017-12-02T11:09:23.236Z,63.30
2017-12-02T11:11:49.430Z,60.60
2017-12-02T11:14:18.724Z,57.00
2017-12-02T11:16:44.975Z,58.78
2017-12-02T11:19:11.118Z,56.90
2017-12-02T11:21:37.249Z,66.20
2017-12-02T11:24:03.404Z,51.05
2017-12-02T11:26:29.523Z,63.63
2017-12-02T11:29:00.238Z,59.28
2017-12-02T11:31:42.190Z,62.28
2017-12-02T11:34:17.122Z,67.78
2017-12-02T11:36:43.539Z,64.05
2017-12-02T11:39:09.852Z,56.22
2017-12-02T11:41:36.246Z,52.80
2017-12-02T11:44:05.089Z,59.35
2017-12-02T11:46:31.402Z,59.17
2017-12-02T11:49:02.016Z,58.28
2017-12-02T11:51:29.092Z,54.45
2017-12-02T11:53:55.473Z,68.12
2017-12-02T11:56:21.815Z,64.12
2017-12-02T11:58:48.195Z,57.22
2017-12-02T12:01:16.183Z,58.72
2017-12-02T12:03:42.511Z,58.60
2017-12-02T12:06:09.589Z,56.42
2017-12-02T12:08:36.656Z,63.40
2017-12-02T12:11:03.136Z,54.50
2017-12-02T12:13:29.456Z,61.90
2017-12-02T12:15:55.781Z,56.10
2017-12-02T12:18:22.161Z,64.45
2017-12-02T12:20:48.450Z,65.62
2017-12-02T12:23:15.520Z,56.45
2017-12-02T12:25:42.577Z,49.30
2017-12-02T12:28:08.900Z,48.55
2017-12-02T12:30:35.992Z,59.15
2017-12-02T12:33:07.243Z,57.67
2017-12-02T12:35:34.512Z,61.42
2017-12-02T12:38:00.824Z,71.95
2017-12-02T12:40:27.108Z,61.42
2017-12-02T12:42:53.420Z,57.85
2017-12-02T12:45:19.953Z,58.95
2017-12-02T12:47:46.447Z,57.58
2017-12-02T12:50:12.768Z,64.95
2017-12-02T12:52:45.775Z,71.28
2017-12-02T12:55:12.081Z,55.88
2017-12-02T12:57:38.400Z,63.75
2017-12-02T13:00:04.943Z,52.90
2017-12-02T13:02:31.297Z,56.78
2017-12-02T13:04:57.584Z,55.80
2017-12-02T13:07:24.700Z,46.92
2017-12-02T13:09:51.036Z,41.47
2017-12-02T13:12:17.752Z,55.17
2017-12-02T13:14:44.884Z,67.25
2017-12-02T13:17:11.331Z,69.03
2017-12-02T13:19:37.641Z,60.10
2017-12-02T13:22:03.982Z,47.92
2017-12-02T13:24:30.322Z,44.30
2017-12-02T13:26:56.647Z,41.03
2017-12-02T13:29:22.975Z,40.33
2017-12-02T13:31:50.080Z,47.13
2017-12-02T13:34:16.462Z,39.90
2017-12-02T13:36:43.557Z,37.10
2017-12-02T13:39:09.902Z,46.45
2017-12-02T13:41:36.218Z,45.12
2017-12-02T13:44:03.263Z,44.80
2017-12-02T13:46:30.290Z,42.00
2017-12-02T13:48:56.628Z,47.22
2017-12-02T13:51:23.088Z,41.15
2017-12-02T13:53:49.446Z,40.10
2017-12-02T13:56:15.791Z,50.40
2017-12-02T13:58:42.121Z,46.37
2017-12-02T14:01:09.222Z,50.38
2017-12-02T14:03:36.910Z,56.50
2017-12-02T14:06:03.217Z,43.55
2017-12-02T14:08:30.299Z,50.47
2017-12-02T14:10:56.631Z,48.87
2017-12-02T14:13:23.267Z,44.03
2017-12-02T14:15:50.307Z,43.87
2017-12-02T14:18:16.722Z,46.45
2017-12-02T14:20:43.077Z,53.40
2017-12-02T14:23:10.168Z,48.03
2017-12-02T14:25:37.227Z,51.45
2017-12-02T14:28:04.334Z,45.45
2017-12-02T14:30:30.716Z,47.03
2017-12-02T14:32:57.024Z,46.50
2017-12-02T14:35:23.360Z,40.53
2017-12-02T14:37:49.850Z,45.03
2017-12-02T14:40:16.426Z,44.50
2017-12-02T14:42:42.772Z,46.58
2017-12-02T14:45:09.818Z,46.00
2017-12-02T14:47:36.861Z,44.83
2017-12-02T14:50:03.193Z,42.53
2017-12-02T14:52:29.486Z,44.40
2017-12-02T14:54:55.865Z,46.50
2017-12-02T14:57:22.163Z,46.95
2017-12-02T14:59:48.542Z,48.40
2017-12-02T15:02:14.865Z,45.88
2017-12-02T15:04:41.195Z,49.38
2017-12-02T15:07:07.525Z,47.75
2017-12-02T15:09:33.972Z,62.35
2017-12-02T15:12:01.086Z,52.72
2017-12-02T15:14:27.497Z,55.45
2017-12-02T15:16:53.876Z,49.15
2017-12-02T15:19:20.229Z,47.88
2017-12-02T15:21:46.674Z,70.07
2017-12-02T15:24:13.109Z,57.10
2017-12-02T15:26:39.435Z,63.28
2017-12-02T15:29:05.763Z,62.17
2017-12-02T15:31:32.110Z,60.25
2017-12-02T15:33:58.534Z,49.75
2017-12-02T15:36:25.053Z,57.45
2017-12-02T15:38:52.139Z,56.67
2017-12-02T15:41:19.231Z,51.95
2017-12-02T15:43:45.618Z,61.10
2017-12-02T15:46:12.787Z,72.65
2017-12-02T15:48:39.196Z,66.57
2017-12-02T15:51:05.615Z,63.30
2017-12-02T15:53:31.969Z,60.33
2017-12-02T15:55:58.356Z,66.80
2017-12-02T15:58:25.481Z,73.18
2017-12-02T16:00:51.845Z,43.90
2017-12-02T16:03:22.631Z,57.60
2017-12-02T16:05:48.946Z,52.17
2017-12-02T16:08:15.996Z,48.75
2017-12-02T16:10:42.330Z,51.37
2017-12-02T16:13:08.781Z,53.78
2017-12-02T16:15:35.297Z,60.83
2017-12-02T16:20:34.630Z,51.53
2017-12-02T16:23:00.994Z,59.22
2017-12-02T16:25:27.327Z,53.67
2017-12-02T16:27:53.703Z,55.63
2017-12-02T16:30:20.117Z,61.70
2017-12-02T16:32:52.564Z,60.12
2017-12-02T16:35:19.614Z,63.08
2017-12-02T16:37:46.008Z,56.28
2017-12-02T16:40:12.319Z,58.63
2017-12-02T16:42:38.674Z,51.95
2017-12-02T16:45:04.983Z,57.17
2017-12-02T16:47:31.217Z,59.13
2017-12-02T16:49:58.275Z,69.35
2017-12-02T16:52:27.752Z,63.75
2017-12-02T16:54:54.115Z,59.88
2017-12-02T16:57:20.413Z,61.65
2017-12-02T16:59:46.788Z,48.33
2017-12-02T17:02:13.110Z,51.75
2017-12-02T17:04:40.236Z,50.42
2017-12-02T17:07:06.600Z,53.55
2017-12-02T17:09:34.673Z,52.85
2017-12-02T17:12:01.345Z,53.30
2017-12-02T17:14:28.237Z,44.75
2017-12-02T17:16:54.585Z,49.20
2017-12-02T17:19:21.630Z,50.35
2017-12-02T17:21:47.965Z,51.83
2017-12-02T17:24:20.453Z,49.05
2017-12-02T17:26:46.807Z,47.67
2017-12-02T17:29:13.191Z,39.50
2017-12-02T17:31:39.500Z,41.88
2017-12-02T17:34:05.868Z,41.80
2017-12-02T17:36:33.030Z,35.95
2017-12-02T17:39:05.111Z,40.80
2017-12-02T17:41:31.480Z,42.20
2017-12-02T17:43:58.564Z,52.95
2017-12-02T17:46:24.955Z,45.20
2017-12-02T17:48:51.273Z,39.95
2017-12-02T17:51:17.614Z,48.10
2017-12-02T17:53:43.962Z,46.97
2017-12-02T17:56:10.287Z,43.40
2017-12-02T17:58:36.705Z,44.08
2017-12-02T18:01:03.123Z,48.13
2017-12-02T18:03:29.548Z,47.55
2017-12-02T18:05:55.849Z,43.65
2017-12-02T18:08:22.238Z,45.47
2017-12-02T18:10:49.018Z,40.70
2017-12-02T18:13:20.752Z,40.30
2017-12-02T18:15:47.083Z,46.20
2017-12-02T18:18:13.462Z,41.15
2017-12-02T18:20:39.760Z,44.85
2017-12-02T18:23:06.148Z,48.15
2017-12-02T18:25:32.466Z,41.40
2017-12-02T18:27:59.482Z,45.45
2017-12-02T18:30:26.837Z,49.67
2017-12-02T18:32:53.164Z,45.17
2017-12-02T18:35:19.600Z,50.22
2017-12-02T18:37:45.928Z,46.60
2017-12-02T18:40:12.277Z,49.25
2017-12-02T18:42:38.619Z,54.00
2017-12-02T18:45:05.728Z,54.63
2017-12-02T18:47:32.059Z,50.03
2017-12-02T18:49:58.361Z,51.78
2017-12-02T18:52:24.802Z,50.90
2017-12-02T18:54:51.130Z,51.45
2017-12-02T18:57:17.494Z,56.33
2017-12-02T18:59:44.532Z,51.72
2017-12-02T19:02:10.849Z,46.45
2017-12-02T19:04:38.044Z,50.70
2017-12-02T19:07:04.383Z,49.30
2017-12-02T19:09:30.738Z,47.95
2017-12-02T19:11:57.196Z,49.88
2017-12-02T19:14:23.662Z,44.63
2017-12-02T19:16:49.976Z,53.78
2017-12-02T19:19:16.331Z,44.72
2017-12-02T19:21:42.687Z,53.50
2017-12-02T19:24:09.172Z,54.88
2017-12-02T19:26:35.589Z,52.17
2017-12-02T19:29:01.929Z,56.60
2017-12-02T19:31:28.378Z,48.95
2017-12-02T19:33:54.935Z,52.58
2017-12-02T19:36:22.012Z,47.35
2017-12-02T19:38:48.537Z,46.45
2017-12-02T19:41:14.990Z,53.58
2017-12-02T19:43:42.088Z,51.63
2017-12-02T19:46:09.086Z,42.25
2017-12-02T19:48:35.518Z,50.70
2017-12-02T19:51:01.857Z,47.30
2017-12-02T19:53:28.280Z,44.65
2017-12-02T19:55:54.791Z,48.70
2017-12-02T19:58:21.216Z,54.90
2017-12-02T20:00:47.612Z,51.17
2017-12-02T20:03:13.978Z,51.37
2017-12-02T20:05:40.416Z,41.95
2017-12-02T20:08:06.748Z,42.30
2017-12-02T20:10:33.127Z,45.60
2017-12-02T20:12:59.515Z,47.35
2017-12-02T20:15:25.869Z,41.95
2017-12-02T20:17:53.133Z,44.83
2017-12-02T20:20:20.224Z,49.53
2017-12-02T20:22:46.569Z,44.72
2017-12-02T20:25:12.896Z,46.70
2017-12-02T20:27:39.245Z,47.35
2017-12-02T20:30:05.605Z,49.88
2017-12-02T20:32:32.029Z,43.45
2017-12-02T20:34:58.426Z,47.25
2017-12-02T20:37:24.834Z,48.92
2017-12-02T20:39:51.913Z,46.40
2017-12-02T20:42:18.341Z,46.33
2017-12-02T20:44:44.663Z,52.00
2017-12-02T20:47:11.028Z,49.25
2017-12-02T20:49:37.442Z,49.38
2017-12-02T20:52:04.460Z,42.10
2017-12-02T20:54:30.784Z,45.80
2017-12-02T20:56:57.129Z,49.17
2017-12-02T20:59:23.479Z,50.72
2017-12-02T21:01:49.800Z,51.03
2017-12-02T21:04:16.130Z,48.55
2017-12-02T21:06:42.444Z,53.95
2017-12-02T21:09:08.777Z,50.65
2017-12-02T21:11:35.104Z,46.88
2017-12-02T21:14:01.432Z,56.55
2017-12-02T21:16:27.736Z,50.85
2017-12-02T21:18:54.804Z,58.05
2017-12-02T21:21:21.212Z,57.90
2017-12-02T21:23:48.281Z,59.17
2017-12-02T21:29:13.569Z,48.53
2017-12-02T21:31:39.957Z,55.38
2017-12-02T21:34:06.353Z,56.50
2017-12-02T21:36:32.669Z,57.08
2017-12-02T21:38:59.828Z,55.03
2017-12-02T21:41:26.177Z,55.72
2017-12-02T21:43:53.425Z,59.47
2017-12-02T21:46:19.712Z,51.97
2017-12-02T21:48:46.779Z,64.47
2017-12-02T21:51:13.092Z,56.90
2017-12-02T21:53:39.543Z,47.17
2017-12-02T21:56:06.639Z,60.30
2017-12-02T21:58:33.084Z,50.17
2017-12-02T22:00:59.791Z,50.12
2017-12-02T22:03:26.123Z,61.35
2017-12-02T22:05:52.453Z,58.95
2017-12-02T22:08:18.806Z,50.35
2017-12-02T22:10:45.103Z,47.28
2017-12-02T22:13:11.679Z,58.22
2017-12-02T22:15:38.086Z,50.92
2017-12-02T22:18:04.395Z,47.17
2017-12-02T22:20:30.746Z,54.08
2017-12-02T22:22:57.016Z,55.90
2017-12-02T22:25:24.077Z,52.88
2017-12-02T22:27:50.585Z,60.33
2017-12-02T22:30:17.647Z,57.53
2017-12-02T22:32:44.040Z,63.90
2017-12-02T22:35:10.444Z,56.37
2017-12-02T22:37:36.889Z,50.30
2017-12-02T22:40:03.265Z,55.95
2017-12-02T22:42:30.393Z,55.75
2017-12-02T22:44:56.740Z,53.10
2017-12-02T22:47:23.124Z,47.22
2017-12-02T22:49:49.498Z,51.90
2017-12-02T22:52:15.845Z,62.33
2017-12-02T22:54:42.299Z,50.00
2017-12-02T22:57:08.761Z,59.22
2017-12-02T22:59:35.852Z,54.15
2017-12-02T23:02:02.316Z,56.40
2017-12-02T23:04:28.692Z,55.22
2017-12-02T23:06:55.144Z,56.58
2017-12-02T23:09:21.484Z,56.05
2017-12-02T23:11:47.813Z,59.65
2017-12-02T23:14:14.373Z,56.15
2017-12-02T23:16:40.711Z,61.00
2017-12-02T23:19:07.040Z,62.50
2017-12-02T23:21:33.394Z,51.60
2017-12-02T23:23:59.752Z,54.78
2017-12-02T23:26:26.106Z,49.58
2017-12-02T23:28:52.471Z,54.15
2017-12-02T23:31:18.999Z,46.40
2017-12-02T23:33:46.076Z,49.03
2017-12-02T23:36:13.136Z,45.90
2017-12-02T23:38:40.014Z,52.20
2017-12-02T23:41:06.912Z,46.03
2017-12-02T23:43:33.016Z,52.35
2017-12-02T23:45:59.183Z,56.53
2017-12-02T23:48:25.326Z,48.08
2017-12-02T23:50:51.458Z,51.42
2017-12-02T23:53:17.584Z,50.50
2017-12-02T23:55:43.917Z,51.50
2017-12-02T23:58:18.949Z,53.25
